map of LIH home
LIH - Airport
Location
City:  Lihue, Kauai, Hawaii, United States
Name:Lihue Airport
ICAO:PHLI
IATA:LIH
FAA LID:LIH

Details
Type:Airport (Part 139 Class I)
Use:Public/Civil, International (customs landing rights)
Latitude:2158'34"N (21.975983)
Longitude:15920'20"W (-159.338957)
Datum:WGS 1984
Elevation:152 ft (46 m)
Variation:9.42E (WMM2015v2 magnetic declination)
-0.03 annual change
Runways:2
Longest:6500 × 150 ft (1981 × 45.5 m), paved

Time
Time Zone:UTC-10
Local Time:

Weather
METAR:PHLI 041353Z AUTO 01010KT 9SM -RA OVC040 21/17 A2997 RMK AO2 RAB51 SLP145 P0000 T02110167 TSNO
TAF:PHLI 041120Z 0412/0512 04014KT P6SM VCSH SCT020 BKN040

Related Locations
Nearby:
Farthest:GNZ: 12378 mi / 19921 km
Ghanzi [Ghanzi Airport], GH, BW

Find:

   beyond  
but within

Other Information
Maps:
NOTAMs:
Links:
Sources:

  
  • flag of United States
  • flag of Hawaii
  

Airport Diagram

Airport diagram for LIH

Airport diagram PDF from FAA

Sectional Chart

Flight Planning
at skyvector.com

Satellite Image

Google Maps Satellite view

 

Copyright © 2004-2019 Karl L. Swartz. All rights reserved.
The Great Circle Mapper name and logo are trademarks of the Great Circle Mapper.
All other trademarks mentioned herein belong to their respective owners.
Please see credits for attibutions and further copyright information.

  Follow gcmap on Facebook Follow gcmap on Twitter GCmap on LinkedIn

hCard Microformat

Geo Microformat